createdAt,value
2022-07-25T00:01:37.219Z,100369.84
2022-07-25T00:04:09.451Z,100366.47
2022-07-25T00:06:40.280Z,100358.53
2022-07-25T00:09:08.498Z,100353.31
2022-07-25T00:11:36.443Z,100357.03
2022-07-25T00:14:04.929Z,100349.94
2022-07-25T00:16:33.501Z,100340.12
2022-07-25T00:19:01.391Z,100340.47
2022-07-25T00:21:30.600Z,100341.66
2022-07-25T00:23:58.675Z,100343.84
2022-07-25T00:26:26.549Z,100332.69
2022-07-25T00:28:54.436Z,100332.03
2022-07-25T00:31:24.919Z,100328.81
2022-07-25T00:33:52.950Z,100331.66
2022-07-25T00:36:21.021Z,100330.00
2022-07-25T00:38:50.591Z,100320.38
2022-07-25T00:41:18.509Z,100325.09
2022-07-25T00:43:46.975Z,100323.59
2022-07-25T00:46:18.902Z,100327.63
2022-07-25T00:48:47.453Z,100328.16
2022-07-25T00:51:17.115Z,100317.16
2022-07-25T00:53:46.183Z,100316.50
2022-07-25T00:56:16.607Z,100307.72
2022-07-25T00:58:46.044Z,100315.00
2022-07-25T01:01:13.997Z,100305.03
2022-07-25T01:03:41.901Z,100305.19
2022-07-25T01:06:10.104Z,100312.44
2022-07-25T01:08:38.357Z,100312.09
2022-07-25T01:11:09.273Z,100303.50
2022-07-25T01:13:38.771Z,100310.06
2022-07-25T01:16:07.281Z,100304.00
2022-07-25T01:18:35.509Z,100300.81
2022-07-25T01:21:05.743Z,100298.59
2022-07-25T01:23:33.674Z,100307.69
2022-07-25T01:26:01.591Z,100302.47
2022-07-25T01:28:29.755Z,100297.41
2022-07-25T01:30:57.929Z,100293.31
2022-07-25T01:33:26.009Z,100288.09
2022-07-25T01:35:54.207Z,100279.66
2022-07-25T01:38:23.408Z,100288.25
2022-07-25T01:40:52.223Z,100282.34
2022-07-25T01:43:20.367Z,100274.59
2022-07-25T01:45:48.314Z,100276.59
2022-07-25T01:48:16.210Z,100268.84
2022-07-25T01:50:45.286Z,100272.53
2022-07-25T01:53:13.181Z,100266.31
2022-07-25T01:55:42.716Z,100265.62
2022-07-25T01:58:11.428Z,100270.31
2022-07-25T02:00:39.997Z,100273.19
2022-07-25T02:03:26.173Z,100267.81
2022-07-25T02:05:54.079Z,100266.97
2022-07-25T02:08:22.257Z,100268.63
2022-07-25T02:10:51.538Z,100260.72
2022-07-25T02:13:20.560Z,100263.09
2022-07-25T02:15:49.239Z,100259.19
2022-07-25T02:18:17.297Z,100261.53
2022-07-25T02:20:45.302Z,100260.97
2022-07-25T02:23:13.430Z,100262.31
2022-07-25T02:25:43.571Z,100256.59
2022-07-25T02:28:12.734Z,100260.97
2022-07-25T02:30:40.942Z,100256.47
2022-07-25T02:33:09.051Z,100251.91
2022-07-25T02:35:37.042Z,100252.88
2022-07-25T02:38:05.246Z,100251.22
2022-07-25T02:40:33.159Z,100241.59
2022-07-25T02:43:01.068Z,100234.03
2022-07-25T02:45:30.544Z,100240.72
2022-07-25T02:47:58.379Z,100239.53
2022-07-25T02:50:26.422Z,100236.97
2022-07-25T02:52:54.534Z,100239.97
2022-07-25T02:55:22.710Z,100231.22
2022-07-25T02:57:50.720Z,100232.41
2022-07-25T03:00:19.316Z,100233.56
2022-07-25T03:02:48.549Z,100231.19
2022-07-25T03:05:17.640Z,100222.44
2022-07-25T03:07:46.396Z,100221.59
2022-07-25T03:10:15.529Z,100216.19
2022-07-25T03:12:44.714Z,100217.38
2022-07-25T03:15:15.741Z,100212.28
2022-07-25T03:17:43.831Z,100207.22
2022-07-25T03:20:13.771Z,100208.25
2022-07-25T03:22:41.936Z,100207.41
2022-07-25T03:25:15.938Z,100209.25
2022-07-25T03:27:52.700Z,100201.16
2022-07-25T03:32:48.650Z,100196.28
2022-07-25T03:35:18.171Z,100199.81
2022-07-25T03:37:46.592Z,100193.59
2022-07-25T03:40:15.411Z,100192.06
2022-07-25T03:42:44.318Z,100189.37
2022-07-25T03:45:12.882Z,100190.38
2022-07-25T03:47:41.009Z,100192.75
2022-07-25T03:50:10.261Z,100184.66
2022-07-25T03:52:39.556Z,100190.72
2022-07-25T03:55:09.060Z,100190.44
2022-07-25T03:57:38.165Z,100187.41
2022-07-25T04:00:08.211Z,100188.75
2022-07-25T04:02:37.618Z,100188.91
2022-07-25T04:05:06.608Z,100188.06
2022-07-25T04:07:34.551Z,100188.06
2022-07-25T04:10:04.700Z,100184.69
2022-07-25T04:12:32.864Z,100197.16
2022-07-25T04:15:00.814Z,100188.59
2022-07-25T04:17:29.077Z,100185.06
2022-07-25T04:19:57.067Z,100186.81
2022-07-25T04:22:25.073Z,100191.03
2022-07-25T04:24:53.220Z,100178.09
2022-07-25T04:27:22.447Z,100187.53
2022-07-25T04:29:50.340Z,100172.37
2022-07-25T04:32:23.344Z,100180.13
2022-07-25T04:34:55.346Z,100172.06
2022-07-25T04:37:23.534Z,100168.19
2022-07-25T04:39:51.468Z,100167.34
2022-07-25T04:42:19.366Z,100169.03
2022-07-25T04:44:48.828Z,100158.87
2022-07-25T04:47:16.731Z,100161.59
2022-07-25T04:49:44.643Z,100157.00
2022-07-25T04:52:12.835Z,100153.47
2022-07-25T04:54:40.779Z,100152.25
2022-07-25T04:57:08.670Z,100148.50
2022-07-25T04:59:37.135Z,100146.44
2022-07-25T05:02:06.587Z,100148.09
2022-07-25T05:04:34.955Z,100141.50
2022-07-25T05:07:03.136Z,100131.31
2022-07-25T05:09:31.079Z,100131.25
2022-07-25T05:11:59.161Z,100123.78
2022-07-25T05:14:27.236Z,100123.34
2022-07-25T05:16:55.299Z,100115.00
2022-07-25T05:19:24.611Z,100120.19
2022-07-25T05:21:53.116Z,100117.25
2022-07-25T05:24:22.957Z,100119.34
2022-07-25T05:26:51.622Z,100122.63
2022-07-25T05:29:19.833Z,100113.25
2022-07-25T05:31:47.927Z,100111.94
2022-07-25T05:34:16.080Z,100110.66
2022-07-25T05:36:47.487Z,100114.59
2022-07-25T05:39:15.490Z,100104.19
2022-07-25T05:41:43.622Z,100111.84
2022-07-25T05:44:11.837Z,100104.06
2022-07-25T05:46:39.775Z,100102.34
2022-07-25T05:49:07.825Z,100097.13
2022-07-25T05:51:36.085Z,100098.78
2022-07-25T05:54:05.661Z,100099.59
2022-07-25T05:56:33.794Z,100089.28
2022-07-25T05:59:01.942Z,100097.00
2022-07-25T06:01:29.956Z,100095.72
2022-07-25T06:03:58.349Z,100090.84
2022-07-25T06:06:26.369Z,100093.25
2022-07-25T06:08:54.246Z,100091.91
2022-07-25T06:11:26.847Z,100100.44
2022-07-25T06:13:59.019Z,100092.75
2022-07-25T06:16:28.078Z,100087.22
2022-07-25T06:18:56.002Z,100088.56
2022-07-25T06:21:24.207Z,100087.34
2022-07-25T06:23:52.311Z,100094.94
2022-07-25T06:26:20.191Z,100086.56
2022-07-25T06:28:49.389Z,100089.78
2022-07-25T06:31:17.535Z,100086.00
2022-07-25T06:33:45.455Z,100072.78
2022-07-25T06:36:13.287Z,100073.19
2022-07-25T06:38:41.391Z,100076.09
2022-07-25T06:41:09.239Z,100074.37
2022-07-25T06:43:37.156Z,100070.13
2022-07-25T06:46:06.978Z,100064.00
2022-07-25T06:48:34.864Z,100062.62
2022-07-25T06:51:03.929Z,100057.72
2022-07-25T06:53:32.119Z,100057.63
2022-07-25T06:56:00.191Z,100051.44
2022-07-25T06:58:28.337Z,100055.09
2022-07-25T07:00:56.775Z,100049.69
2022-07-25T07:03:25.974Z,100052.03
2022-07-25T07:05:53.824Z,100050.16
2022-07-25T07:08:21.916Z,100055.00
2022-07-25T07:10:49.883Z,100042.62
2022-07-25T07:13:23.753Z,100037.59
2022-07-25T07:15:52.755Z,100040.16
2022-07-25T07:18:21.689Z,100040.16
2022-07-25T07:20:51.722Z,100038.28
2022-07-25T07:23:20.097Z,100037.37
2022-07-25T07:25:48.235Z,100029.31
2022-07-25T07:28:16.541Z,100022.94
2022-07-25T07:31:14.676Z,100021.84
2022-07-25T07:33:33.429Z,100026.63
2022-07-25T07:36:03.311Z,100027.59
2022-07-25T07:38:31.174Z,100017.28
2022-07-25T07:40:59.034Z,100011.28
2022-07-25T07:43:29.878Z,100019.03
2022-07-25T07:46:00.720Z,100008.03
2022-07-25T07:48:29.628Z,100012.97
2022-07-25T07:50:57.986Z,100010.00
2022-07-25T07:53:47.695Z,100008.88
2022-07-25T07:56:16.326Z,99993.25
2022-07-25T07:58:45.153Z,99996.22
2022-07-25T08:01:13.099Z,99997.03
2022-07-25T08:03:41.314Z,99986.81
2022-07-25T08:06:09.280Z,99986.53
2022-07-25T08:08:39.084Z,99992.84
2022-07-25T08:11:07.208Z,99993.28
2022-07-25T08:13:35.190Z,99978.91
2022-07-25T08:16:04.260Z,99981.53
2022-07-25T08:18:33.756Z,99984.25
2022-07-25T08:21:04.144Z,99978.09
2022-07-25T08:23:34.624Z,99971.41
2022-07-25T08:26:04.088Z,99964.63
2022-07-25T08:28:32.516Z,99966.94
2022-07-25T08:31:00.645Z,99966.72
2022-07-25T08:33:28.681Z,99971.47
2022-07-25T08:35:58.837Z,99969.91
2022-07-25T08:38:29.417Z,99967.75
2022-07-25T08:40:58.828Z,99964.78
2022-07-25T08:43:32.849Z,99962.13
2022-07-25T08:46:02.767Z,99962.78
2022-07-25T08:48:30.788Z,99964.78
2022-07-25T08:50:59.008Z,99957.66
2022-07-25T08:53:32.994Z,99953.81
2022-07-25T08:56:17.395Z,99955.22
2022-07-25T08:58:49.419Z,99954.69
2022-07-25T09:01:17.607Z,99949.75
2022-07-25T09:03:48.127Z,99956.09
2022-07-25T09:06:18.817Z,99948.37
2022-07-25T09:08:54.362Z,99940.06
2022-07-25T09:11:31.231Z,99930.41
2022-07-25T09:14:02.732Z,99926.50
2022-07-25T09:16:35.523Z,99924.53
2022-07-25T09:19:08.271Z,99925.31
2022-07-25T09:21:36.436Z,99920.03
2022-07-25T09:24:12.523Z,99919.75
2022-07-25T09:26:51.666Z,99909.44
2022-07-25T09:29:22.857Z,99898.59
2022-07-25T09:31:51.764Z,99909.09
2022-07-25T09:34:32.011Z,99902.41
2022-07-25T09:37:00.204Z,99900.41
2022-07-25T09:39:45.021Z,99896.97
2022-07-25T09:42:20.019Z,99898.81
2022-07-25T09:45:11.230Z,99897.03
2022-07-25T09:47:52.068Z,99893.34
2022-07-25T09:50:21.685Z,99878.87
2022-07-25T09:52:52.219Z,99879.00
2022-07-25T09:55:21.369Z,99876.31
2022-07-25T09:57:52.523Z,99875.72
2022-07-25T10:00:24.977Z,99872.41
2022-07-25T10:03:06.370Z,99869.66
2022-07-25T10:05:48.399Z,99867.38
2022-07-25T10:08:16.986Z,99857.16
2022-07-25T10:10:44.989Z,99853.84
2022-07-25T10:13:17.706Z,99834.72
2022-07-25T10:15:49.507Z,99840.37
2022-07-25T10:18:20.674Z,99830.41
2022-07-25T10:20:50.894Z,99833.59
2022-07-25T10:26:20.397Z,99824.28
2022-07-25T10:28:50.234Z,99818.16
2022-07-25T10:31:22.961Z,99814.44
2022-07-25T10:33:55.975Z,99812.84
2022-07-25T10:36:25.484Z,99815.34
2022-07-25T10:38:57.058Z,99802.78
2022-07-25T10:41:27.265Z,99805.34
2022-07-25T10:43:58.582Z,99805.84
2022-07-25T10:46:30.846Z,99798.47
2022-07-25T10:49:01.125Z,99798.34
2022-07-25T10:51:32.071Z,99797.81
2022-07-25T10:54:00.334Z,99796.47
2022-07-25T10:56:29.832Z,99784.25
2022-07-25T10:58:59.644Z,99782.69
2022-07-25T11:01:30.599Z,99781.59
2022-07-25T11:04:00.645Z,99773.13
2022-07-25T11:06:34.865Z,99768.34
2022-07-25T11:09:04.219Z,99776.22
2022-07-25T11:11:40.984Z,99767.13
2022-07-25T11:14:16.674Z,99747.44
2022-07-25T11:16:47.288Z,99755.94
2022-07-25T11:19:23.383Z,99751.75
2022-07-25T11:21:54.568Z,99754.53
2022-07-25T11:24:23.519Z,99752.22
2022-07-25T11:26:54.066Z,99749.78
2022-07-25T11:29:24.196Z,99741.00
2022-07-25T11:31:55.296Z,99734.97
2022-07-25T11:34:25.446Z,99725.34
2022-07-25T11:36:57.108Z,99722.56
2022-07-25T11:39:27.651Z,99730.28
2022-07-25T11:42:03.314Z,99715.81
2022-07-25T11:44:33.139Z,99713.47
2022-07-25T11:47:02.991Z,99715.81
2022-07-25T11:49:32.201Z,99700.94
2022-07-25T11:52:00.107Z,99701.94
2022-07-25T11:54:27.974Z,99704.88
2022-07-25T11:56:56.187Z,99695.34
2022-07-25T11:59:25.331Z,99687.50
2022-07-25T12:01:53.375Z,99686.72
2022-07-25T12:04:23.079Z,99685.97
2022-07-25T12:06:51.048Z,99675.47
2022-07-25T12:09:21.055Z,99672.69
2022-07-25T12:11:50.548Z,99665.53
2022-07-25T12:14:18.690Z,99665.13
2022-07-25T12:16:46.661Z,99649.34
2022-07-25T12:19:23.007Z,99646.12
2022-07-25T12:21:50.916Z,99652.53
2022-07-25T12:24:19.055Z,99648.38
2022-07-25T12:26:47.000Z,99646.56
2022-07-25T12:29:14.927Z,99630.22
2022-07-25T12:31:43.040Z,99629.75
2022-07-25T12:34:10.938Z,99632.59
2022-07-25T12:36:43.978Z,99627.75
2022-07-25T12:39:12.411Z,99627.34
2022-07-25T12:41:42.518Z,99622.00
2022-07-25T12:44:11.927Z,99610.66
2022-07-25T12:46:47.156Z,99612.31
2022-07-25T12:49:16.993Z,99606.22
2022-07-25T12:51:46.665Z,99598.97
2022-07-25T12:54:22.063Z,99603.25
2022-07-25T12:56:50.753Z,99601.94
2022-07-25T12:59:18.740Z,99593.91
2022-07-25T13:01:46.930Z,99591.59
2022-07-25T13:04:15.208Z,99590.44
2022-07-25T13:06:43.153Z,99581.78
2022-07-25T13:09:12.377Z,99587.69
2022-07-25T13:11:40.511Z,99580.63
2022-07-25T13:14:08.463Z,99574.69
2022-07-25T13:16:37.912Z,99568.13
2022-07-25T13:19:06.656Z,99575.34
2022-07-25T13:21:34.973Z,99574.56
2022-07-25T13:24:02.956Z,99572.41
2022-07-25T13:26:32.572Z,99569.94
2022-07-25T13:29:01.188Z,99559.91
2022-07-25T13:31:29.579Z,99558.28
2022-07-25T13:33:57.829Z,99563.69
2022-07-25T13:36:25.807Z,99571.41
2022-07-25T13:38:53.670Z,99564.50
2022-07-25T13:41:21.851Z,99560.41
2022-07-25T13:43:51.077Z,99556.75
2022-07-25T13:46:19.059Z,99544.56
2022-07-25T13:48:47.463Z,99548.78
2022-07-25T13:51:15.552Z,99560.16
2022-07-25T13:53:44.835Z,99558.13
2022-07-25T13:56:13.373Z,99548.44
2022-07-25T13:58:42.103Z,99552.53
2022-07-25T14:01:11.720Z,99552.84
2022-07-25T14:03:40.486Z,99547.53
2022-07-25T14:06:11.185Z,99544.06
2022-07-25T14:08:41.131Z,99538.31
2022-07-25T14:11:09.302Z,99543.25
2022-07-25T14:13:38.022Z,99532.41
2022-07-25T14:16:07.149Z,99530.94
2022-07-25T14:18:36.639Z,99536.94
2022-07-25T14:21:04.683Z,99532.44
2022-07-25T14:23:32.857Z,99527.22
2022-07-25T14:26:00.740Z,99522.66
2022-07-25T14:28:28.649Z,99521.53
2022-07-25T14:30:56.892Z,99512.38
2022-07-25T14:33:24.881Z,99507.00
2022-07-25T14:35:54.271Z,99516.34
2022-07-25T14:38:22.512Z,99520.28
2022-07-25T14:40:50.432Z,99512.69
2022-07-25T14:43:18.516Z,99509.84
2022-07-25T14:45:46.723Z,99500.31
2022-07-25T14:48:14.766Z,99496.00
2022-07-25T14:50:42.698Z,99503.41
2022-07-25T14:53:13.406Z,99500.38
2022-07-25T14:55:41.612Z,99496.78
2022-07-25T14:58:09.535Z,99490.84
2022-07-25T15:00:41.667Z,99492.91
2022-07-25T15:03:10.308Z,99497.41
2022-07-25T15:05:39.346Z,99490.13
2022-07-25T15:08:07.718Z,99492.31
2022-07-25T15:10:37.185Z,99485.31
2022-07-25T15:13:29.989Z,99483.59
2022-07-25T15:15:53.449Z,99479.81
2022-07-25T15:18:21.669Z,99471.72
2022-07-25T15:20:51.780Z,99474.69
2022-07-25T15:23:21.092Z,99475.63
2022-07-25T15:26:01.658Z,99464.53
2022-07-25T15:28:31.445Z,99464.56
2022-07-25T15:30:59.682Z,99465.44
2022-07-25T15:33:27.729Z,99452.16
2022-07-25T15:35:55.804Z,99450.78
2022-07-25T15:38:24.597Z,99445.59
2022-07-25T15:40:53.923Z,99440.94
2022-07-25T15:43:22.027Z,99439.34
2022-07-25T15:45:50.468Z,99450.94
2022-07-25T15:48:19.581Z,99450.19
2022-07-25T15:50:51.328Z,99448.47
2022-07-25T15:53:19.713Z,99459.63
2022-07-25T15:55:49.028Z,99452.37
2022-07-25T15:58:18.334Z,99454.63
2022-07-25T16:00:46.643Z,99444.75
2022-07-25T16:03:14.946Z,99456.34
2022-07-25T16:05:44.640Z,99456.22
2022-07-25T16:08:12.500Z,99463.44
2022-07-25T16:10:40.619Z,99470.25
2022-07-25T16:13:08.616Z,99489.16
2022-07-25T16:15:37.941Z,99556.53
2022-07-25T16:18:06.836Z,99595.69
2022-07-25T16:20:34.869Z,99663.22
2022-07-25T16:23:03.031Z,99693.44
2022-07-25T16:25:31.489Z,99688.47
2022-07-25T16:28:00.558Z,99678.81
2022-07-25T16:30:29.569Z,99682.28
2022-07-25T16:32:59.084Z,99675.34
2022-07-25T16:35:27.392Z,99646.09
2022-07-25T16:37:55.237Z,99633.41
2022-07-25T16:40:28.703Z,99606.66
2022-07-25T16:42:59.541Z,99593.00
2022-07-25T16:45:28.583Z,99580.69
2022-07-25T16:47:56.446Z,99564.69
2022-07-25T16:50:25.747Z,99564.13
2022-07-25T16:52:54.834Z,99541.41
2022-07-25T16:55:22.828Z,99530.75
2022-07-25T16:57:50.910Z,99530.31
2022-07-25T17:00:19.227Z,99530.66
2022-07-25T17:02:47.268Z,99537.94
2022-07-25T17:05:15.532Z,99558.97
2022-07-25T17:07:45.115Z,99583.47
2022-07-25T17:10:13.358Z,99591.88
2022-07-25T17:12:41.326Z,99594.88
2022-07-25T17:15:10.787Z,99594.78
2022-07-25T17:17:38.880Z,99596.44
2022-07-25T17:20:08.088Z,99596.97
2022-07-25T17:22:36.262Z,99602.72
2022-07-25T17:25:06.603Z,99610.59
2022-07-25T17:27:34.562Z,99610.06
2022-07-25T17:30:02.755Z,99618.31
2022-07-25T17:32:31.029Z,99607.69
2022-07-25T17:34:59.822Z,99605.72
2022-07-25T17:37:28.435Z,99595.19
2022-07-25T17:39:56.398Z,99594.47
2022-07-25T17:42:25.713Z,99594.28
2022-07-25T17:44:54.116Z,99588.31
2022-07-25T17:47:23.318Z,99586.00
2022-07-25T17:49:51.421Z,99585.19
2022-07-25T17:52:19.601Z,99584.66
2022-07-25T17:54:47.623Z,99582.09
2022-07-25T17:57:15.718Z,99578.50
2022-07-25T17:59:45.216Z,99568.91
2022-07-25T18:02:13.196Z,99552.97
2022-07-25T18:04:41.530Z,99555.06
2022-07-25T18:07:09.855Z,99549.06
2022-07-25T18:09:38.090Z,99548.44
2022-07-25T18:12:07.120Z,99549.72
2022-07-25T18:14:35.104Z,99553.00
2022-07-25T18:17:06.134Z,99549.25
2022-07-25T18:19:34.248Z,99545.97
2022-07-25T18:22:02.098Z,99557.75
2022-07-25T18:24:30.306Z,99553.19
2022-07-25T18:26:59.580Z,99560.78
2022-07-25T18:29:27.548Z,99573.87
2022-07-25T18:31:55.424Z,99584.09
2022-07-25T18:34:25.043Z,99577.13
2022-07-25T18:36:53.017Z,99579.59
2022-07-25T18:39:21.028Z,99580.34
2022-07-25T18:41:49.287Z,99588.81
2022-07-25T18:44:17.569Z,99597.25
2022-07-25T18:46:46.261Z,99602.44
2022-07-25T18:49:14.550Z,99605.91
2022-07-25T18:51:43.925Z,99607.81
2022-07-25T18:54:11.900Z,99611.56
2022-07-25T18:56:40.101Z,99609.34
2022-07-25T18:59:08.693Z,99616.28
2022-07-25T19:01:37.430Z,99627.13
2022-07-25T19:04:06.196Z,99634.53
2022-07-25T19:06:34.322Z,99637.75
2022-07-25T19:09:04.419Z,99634.03
2022-07-25T19:11:33.281Z,99623.72
2022-07-25T19:14:01.894Z,99623.97
2022-07-25T19:16:29.949Z,99629.00
2022-07-25T19:18:58.299Z,99637.81
2022-07-25T19:21:26.281Z,99640.13
2022-07-25T19:23:54.184Z,99639.81
2022-07-25T19:26:23.850Z,99636.69
2022-07-25T19:28:51.969Z,99635.16
2022-07-25T19:31:20.199Z,99643.94
2022-07-25T19:33:49.284Z,99636.38
2022-07-25T19:36:17.603Z,99625.28
2022-07-25T19:38:45.538Z,99620.59
2022-07-25T19:41:14.443Z,99635.69
2022-07-25T19:43:43.779Z,99638.56
2022-07-25T19:46:11.770Z,99645.22
2022-07-25T19:48:40.282Z,99639.75
2022-07-25T19:51:08.276Z,99653.72
2022-07-25T19:53:36.211Z,99660.72
2022-07-25T19:56:06.601Z,99670.47
2022-07-25T19:58:38.696Z,99698.44
2022-07-25T20:01:09.677Z,99698.31
2022-07-25T20:03:37.861Z,99726.25
2022-07-25T20:06:08.256Z,99715.19
2022-07-25T20:08:37.127Z,99726.41
2022-07-25T20:11:05.299Z,99720.03
2022-07-25T20:13:33.208Z,99712.34
2022-07-25T20:16:02.103Z,99713.28
2022-07-25T20:18:31.802Z,99717.09
2022-07-25T20:20:59.762Z,99712.66
2022-07-25T20:23:28.048Z,99734.09
2022-07-25T20:25:56.151Z,99740.13
2022-07-25T20:28:24.104Z,99746.62
2022-07-25T20:30:52.170Z,99754.97
2022-07-25T20:33:20.654Z,99776.75
2022-07-25T20:35:49.874Z,99788.72
2022-07-25T20:38:17.758Z,99800.28
2022-07-25T20:40:49.608Z,99800.91
2022-07-25T20:43:18.097Z,99801.19
2022-07-25T20:45:47.443Z,99806.62
2022-07-25T20:48:15.779Z,99804.16
2022-07-25T20:50:44.787Z,99806.69
2022-07-25T20:53:14.280Z,99819.06
2022-07-25T20:55:42.349Z,99823.16
2022-07-25T20:58:10.285Z,99821.88
2022-07-25T21:00:38.518Z,99829.66
2022-07-25T21:03:08.242Z,99840.31
2022-07-25T21:05:39.347Z,99839.31
2022-07-25T21:08:07.963Z,99850.00
2022-07-25T21:10:37.413Z,99847.06
2022-07-25T21:13:05.351Z,99843.72
2022-07-25T21:15:33.840Z,99843.13
2022-07-25T21:18:01.849Z,99838.94
2022-07-25T21:20:29.876Z,99841.22
2022-07-25T21:22:58.161Z,99839.56
2022-07-25T21:25:26.692Z,99847.72
2022-07-25T21:27:56.085Z,99864.25
2022-07-25T21:30:24.606Z,99870.13
2022-07-25T21:32:52.557Z,99876.84
2022-07-25T21:35:20.595Z,99884.75
2022-07-25T21:37:48.884Z,99912.34
2022-07-25T21:40:16.762Z,99919.47
2022-07-25T21:42:45.262Z,99916.50
2022-07-25T21:45:14.943Z,99914.63
2022-07-25T21:47:42.939Z,99914.41
2022-07-25T21:50:29.507Z,99915.47
2022-07-25T21:52:57.898Z,99905.19
2022-07-25T21:55:25.974Z,99903.47
2022-07-25T21:57:53.972Z,99898.94
2022-07-25T22:00:23.527Z,99906.03
2022-07-25T22:02:51.856Z,99911.44
2022-07-25T22:05:20.254Z,99910.19
2022-07-25T22:07:49.056Z,99924.63
2022-07-25T22:10:19.389Z,99931.47
2022-07-25T22:12:47.743Z,99933.56
2022-07-25T22:15:16.470Z,99939.00
2022-07-25T22:17:48.597Z,99962.78
2022-07-25T22:20:18.122Z,99953.22
2022-07-25T22:22:46.709Z,99965.31
2022-07-25T22:25:15.005Z,99972.38
2022-07-25T22:27:43.046Z,99978.00
2022-07-25T22:30:18.290Z,99967.31
2022-07-25T22:32:49.218Z,99962.09
2022-07-25T22:35:18.095Z,99970.81
2022-07-25T22:37:46.748Z,99978.97
2022-07-25T22:40:15.205Z,99978.50
2022-07-25T22:42:43.684Z,99980.16
2022-07-25T22:45:12.131Z,99983.91
2022-07-25T22:47:40.092Z,99973.44
2022-07-25T22:50:13.380Z,99967.56
2022-07-25T22:52:41.437Z,99975.47
2022-07-25T22:55:10.472Z,99978.56
2022-07-25T22:57:38.575Z,99974.53
2022-07-25T23:00:08.972Z,99982.25
2022-07-25T23:02:37.163Z,99988.84
2022-07-25T23:05:06.102Z,99983.59
2022-07-25T23:07:35.918Z,99991.09
2022-07-25T23:10:05.646Z,99996.13
2022-07-25T23:12:33.603Z,100000.53
2022-07-25T23:15:01.592Z,100013.69
2022-07-25T23:17:29.976Z,100010.75
2022-07-25T23:19:58.594Z,100016.59
2022-07-25T23:22:28.288Z,100026.87
2022-07-25T23:24:58.627Z,100030.63
2022-07-25T23:27:27.132Z,100030.63
2022-07-25T23:29:55.177Z,100024.13
2022-07-25T23:32:23.356Z,100025.34
2022-07-25T23:34:51.256Z,100029.94
2022-07-25T23:37:19.235Z,100029.06
2022-07-25T23:39:47.372Z,100033.28
2022-07-25T23:42:16.586Z,100033.09
2022-07-25T23:44:46.127Z,100035.41
2022-07-25T23:47:15.428Z,100037.09
2022-07-25T23:49:45.750Z,100033.31
2022-07-25T23:52:14.314Z,100038.59
2022-07-25T23:54:42.602Z,100034.16
2022-07-25T23:57:12.547Z,100037.88
2022-07-25T23:59:41.932Z,100034.91
